Time;durP1;ratioP1;P1;durP2;ratioP2;P2;SDS_P1;SDS_P2;PMS_P1;PMS_P2;Temp;Humidity;BMP_temperature;BMP_pressure;BME280_temperature;BME280_humidity;BME280_pressure;Samples;Min_cycle;Max_cycle;Signal;HPM_P1;HPM_P2
2021/01/08 00:01:38;;;;;;;8.60;6.30;;;3.80;99.90;;;;;;5012735;28;20178;-84
2021/01/08 00:04:03;;;;;;;11.27;6.90;;;4.00;99.90;;;;;;5014335;28;20210;-84
2021/01/08 00:06:29;;;;;;;11.80;6.60;;;4.00;99.90;;;;;;5013434;28;20193;-86
2021/01/08 00:08:55;;;;;;;8.40;6.10;;;4.10;99.90;;;;;;5012895;28;20214;-85
2021/01/08 00:11:24;;;;;;;9.23;6.20;;;4.00;99.90;;;;;;5013099;28;20174;-85
2021/01/08 00:13:50;;;;;;;8.63;6.43;;;4.00;99.90;;;;;;5012853;28;20174;-84
2021/01/08 00:16:15;;;;;;;9.67;6.80;;;4.00;99.90;;;;;;5013326;28;20201;-85
2021/01/08 00:18:41;;;;;;;9.33;6.17;;;4.00;99.90;;;;;;5012652;28;20943;-85
2021/01/08 00:21:07;;;;;;;8.83;5.90;;;4.00;99.90;;;;;;5012667;28;20268;-86
2021/01/08 00:23:32;;;;;;;11.37;6.10;;;4.10;99.90;;;;;;5012964;28;20245;-86
2021/01/08 00:25:58;;;;;;;8.17;5.77;;;4.00;99.90;;;;;;5012730;28;20228;-85
2021/01/08 00:28:24;;;;;;;8.53;6.27;;;4.10;99.90;;;;;;5012805;28;20186;-86
2021/01/08 00:30:49;;;;;;;7.33;5.53;;;4.00;99.90;;;;;;5005334;28;20651;-88
2021/01/08 00:33:15;;;;;;;10.47;6.00;;;3.90;99.90;;;;;;5008248;28;20182;-86
2021/01/08 00:35:40;;;;;;;8.27;6.20;;;3.90;99.90;;;;;;5012611;28;20170;-85
2021/01/08 00:38:07;;;;;;;10.00;6.83;;;3.90;99.90;;;;;;5026621;28;20181;-84
2021/01/08 00:40:33;;;;;;;10.27;6.67;;;3.80;99.90;;;;;;5036932;28;20213;-84
2021/01/08 00:42:59;;;;;;;7.90;5.60;;;3.90;99.90;;;;;;5020631;28;20218;-86
2021/01/08 00:45:26;;;;;;;10.03;6.77;;;3.90;99.90;;;;;;5015659;28;20248;-85
2021/01/08 00:47:51;;;;;;;8.97;5.90;;;3.90;99.90;;;;;;5012783;28;20174;-85
2021/01/08 00:50:18;;;;;;;10.20;6.20;;;3.80;99.90;;;;;;5012533;28;20676;-86
2021/01/08 00:52:44;;;;;;;8.33;6.60;;;3.80;99.90;;;;;;5012903;28;20184;-84
2021/01/08 00:55:11;;;;;;;8.37;6.60;;;3.80;99.90;;;;;;5013874;28;20178;-85
2021/01/08 00:57:37;;;;;;;8.67;6.70;;;3.80;99.90;;;;;;5016631;28;20185;-84
2021/01/08 01:00:04;;;;;;;10.37;6.83;;;3.70;99.90;;;;;;5016391;28;20626;-85
2021/01/08 01:02:32;;;;;;;8.53;6.20;;;3.80;99.90;;;;;;5016629;28;20217;-86
2021/01/08 01:04:58;;;;;;;10.87;6.30;;;3.80;99.90;;;;;;5020548;28;20182;-84
2021/01/08 01:07:23;;;;;;;10.13;6.57;;;3.80;99.90;;;;;;5016660;28;20178;-84
2021/01/08 01:09:49;;;;;;;8.93;6.67;;;3.80;99.90;;;;;;5015874;28;20186;-84
2021/01/08 01:12:15;;;;;;;8.97;6.53;;;3.90;99.90;;;;;;5016009;28;20174;-85
2021/01/08 01:14:40;;;;;;;10.40;6.60;;;3.80;99.90;;;;;;5015809;28;20305;-86
2021/01/08 01:17:07;;;;;;;9.50;7.00;;;3.80;99.90;;;;;;5015985;28;20182;-87
2021/01/08 01:19:32;;;;;;;10.23;6.53;;;3.70;99.90;;;;;;5016094;28;20177;-86
2021/01/08 01:21:58;;;;;;;8.33;6.10;;;3.70;99.90;;;;;;5015680;28;20260;-85
2021/01/08 01:24:24;;;;;;;10.30;6.90;;;3.70;99.90;;;;;;5016450;28;20178;-86
2021/01/08 01:26:55;;;;;;;10.33;7.50;;;3.70;99.90;;;;;;5032449;28;20216;-87
2021/01/08 01:29:22;;;;;;;9.70;6.73;;;3.80;99.90;;;;;;5032087;28;20182;-86
2021/01/08 01:31:48;;;;;;;11.73;7.30;;;3.80;99.90;;;;;;5032151;28;20705;-85
2021/01/08 01:34:14;;;;;;;9.27;7.00;;;3.80;99.90;;;;;;5032200;28;20171;-86
2021/01/08 01:36:40;;;;;;;9.33;6.27;;;3.70;99.90;;;;;;5032159;28;20181;-85
2021/01/08 01:39:05;;;;;;;9.83;7.07;;;3.70;99.90;;;;;;5031746;28;20202;-84
2021/01/08 01:41:31;;;;;;;10.67;7.10;;;3.70;99.90;;;;;;5031603;28;20185;-84
2021/01/08 01:43:57;;;;;;;9.77;7.20;;;3.80;99.90;;;;;;5031970;28;20379;-85
2021/01/08 01:46:23;;;;;;;10.27;7.10;;;3.70;99.90;;;;;;5031687;28;20691;-85
2021/01/08 01:48:52;;;;;;;9.97;7.60;;;3.90;99.90;;;;;;5031266;28;20190;-85
2021/01/08 01:51:20;;;;;;;9.77;6.97;;;3.70;99.90;;;;;;5031671;28;20182;-84
2021/01/08 01:53:48;;;;;;;10.17;7.23;;;3.80;99.90;;;;;;5031894;28;20171;-85
2021/01/08 01:56:14;;;;;;;7.87;6.67;;;3.90;99.90;;;;;;5031920;28;20170;-85
2021/01/08 01:58:40;;;;;;;10.73;7.27;;;3.80;99.90;;;;;;5016577;28;20260;-86
2021/01/08 02:01:07;;;;;;;10.77;7.53;;;3.80;99.90;;;;;;5031055;28;20505;-85
2021/01/08 02:03:52;;;;;;;10.17;7.23;;;3.90;99.90;;;;;;5031464;28;20682;-85
2021/01/08 02:06:21;;;;;;;9.90;7.00;;;3.80;99.90;;;;;;5030718;28;20182;-86
2021/01/08 02:08:53;;;;;;;12.67;7.33;;;3.80;99.90;;;;;;5031105;28;20236;-85
2021/01/08 02:11:24;;;;;;;10.27;7.30;;;3.70;99.90;;;;;;5030855;28;20653;-86
2021/01/08 02:14:21;;;;;;;13.10;8.27;;;3.70;99.90;;;;;;5031544;28;20178;-86
2021/01/08 02:16:50;;;;;;;10.87;7.53;;;3.70;99.90;;;;;;5006945;28;20831;-85
2021/01/08 02:19:24;;;;;;;11.07;7.97;;;3.70;99.90;;;;;;5031543;28;20257;-86
2021/01/08 02:21:56;;;;;;;13.63;7.27;;;3.70;99.90;;;;;;5031333;28;20202;-86
2021/01/08 02:24:28;;;;;;;11.50;7.80;;;3.70;99.90;;;;;;5031537;28;20650;-84
2021/01/08 02:26:54;;;;;;;11.03;7.70;;;3.70;99.90;;;;;;5014751;28;20167;-85
2021/01/08 02:29:20;;;;;;;11.27;8.17;;;3.80;99.90;;;;;;5014894;28;20170;-87
2021/01/08 02:31:46;;;;;;;11.47;8.13;;;3.80;99.90;;;;;;5014492;28;20252;-85
2021/01/08 02:34:12;;;;;;;15.37;8.57;;;3.80;99.90;;;;;;5014764;28;20182;-85
2021/01/08 02:36:41;;;;;;;11.40;8.43;;;3.70;99.90;;;;;;5014564;28;20541;-85
2021/01/08 02:39:08;;;;;;;11.13;8.37;;;3.70;99.90;;;;;;5014419;28;20209;-85
2021/01/08 02:41:35;;;;;;;12.63;8.50;;;3.70;99.90;;;;;;5014328;28;20498;-85
2021/01/08 02:44:02;;;;;;;10.87;7.60;;;3.50;99.90;;;;;;5014304;28;20216;-86
2021/01/08 02:46:29;;;;;;;12.50;8.13;;;3.50;99.90;;;;;;5014173;28;20171;-85
2021/01/08 02:48:54;;;;;;;13.10;8.57;;;3.60;99.90;;;;;;5015270;28;20197;-85
2021/01/08 02:51:20;;;;;;;14.17;8.90;;;3.60;99.90;;;;;;5014095;28;20166;-85
2021/01/08 02:53:47;;;;;;;12.70;9.07;;;3.70;99.90;;;;;;5015433;28;20217;-85
2021/01/08 02:56:26;;;;;;;15.93;9.10;;;3.60;99.90;;;;;;5014079;28;20269;-86
2021/01/08 02:58:52;;;;;;;14.33;9.13;;;3.70;99.90;;;;;;5014007;28;20627;-84
2021/01/08 03:01:18;;;;;;;12.63;9.90;;;3.70;99.90;;;;;;5014147;28;20185;-85
2021/01/08 03:03:44;;;;;;;16.23;9.37;;;3.50;99.90;;;;;;5013888;28;20214;-84
2021/01/08 03:06:11;;;;;;;12.40;9.30;;;3.60;99.90;;;;;;5013824;28;20265;-85
2021/01/08 03:08:37;;;;;;;13.60;9.40;;;3.50;99.90;;;;;;5013620;28;20174;-85
2021/01/08 03:11:10;;;;;;;12.97;9.90;;;3.50;99.90;;;;;;5014063;28;20665;-85
2021/01/08 03:13:40;;;;;;;15.87;10.10;;;3.60;99.90;;;;;;5013510;28;20170;-85
2021/01/08 03:16:07;;;;;;;14.03;10.40;;;3.50;99.90;;;;;;5013884;28;20170;-86
2021/01/08 03:18:33;;;;;;;12.90;9.80;;;3.50;99.90;;;;;;5013398;28;20177;-86
2021/01/08 03:20:58;;;;;;;15.43;10.20;;;3.60;99.90;;;;;;5013728;28;20174;-85
2021/01/08 03:23:24;;;;;;;14.27;10.60;;;3.60;99.90;;;;;;5013402;28;20206;-85
2021/01/08 03:25:50;;;;;;;13.23;9.57;;;3.50;99.90;;;;;;5013459;28;20178;-87
2021/01/08 03:28:17;;;;;;;15.03;10.77;;;3.40;99.90;;;;;;5029879;28;20182;-85
2021/01/08 03:30:43;;;;;;;17.63;11.23;;;3.50;99.90;;;;;;5013490;28;20217;-84
2021/01/08 03:33:09;;;;;;;16.37;11.27;;;3.40;99.90;;;;;;5013350;28;20206;-84
2021/01/08 03:35:34;;;;;;;15.17;10.73;;;3.30;99.90;;;;;;5013365;28;20174;-86
2021/01/08 03:38:00;;;;;;;17.73;11.27;;;3.40;99.90;;;;;;5013297;28;20182;-85
2021/01/08 03:40:25;;;;;;;15.20;10.77;;;3.40;99.90;;;;;;5020492;28;20202;-85
2021/01/08 03:42:51;;;;;;;16.77;11.57;;;3.40;99.90;;;;;;5013623;28;20202;-84
2021/01/08 03:45:17;;;;;;;15.53;10.73;;;3.40;99.90;;;;;;5013516;28;20182;-86
2021/01/08 03:47:42;;;;;;;16.07;11.10;;;3.40;99.90;;;;;;5028729;28;20177;-84
2021/01/08 03:50:09;;;;;;;18.53;12.67;;;3.40;99.90;;;;;;5038145;28;20214;-84
2021/01/08 03:52:35;;;;;;;18.90;11.50;;;3.40;99.90;;;;;;5019828;28;20186;-85
2021/01/08 03:55:04;;;;;;;18.17;12.50;;;3.50;99.90;;;;;;5016771;28;20654;-84
2021/01/08 03:58:07;;;;;;;18.57;11.97;;;3.40;99.90;;;;;;5013093;28;20274;-86
2021/01/08 04:00:33;;;;;;;16.17;12.07;;;3.50;99.90;;;;;;5013165;28;20173;-85
2021/01/08 04:02:58;;;;;;;15.63;11.60;;;3.50;99.90;;;;;;5012977;28;20210;-86
2021/01/08 04:05:24;;;;;;;16.90;12.97;;;3.60;99.90;;;;;;5012794;28;20178;-86
2021/01/08 04:07:49;;;;;;;19.40;12.77;;;3.30;99.90;;;;;;5013153;28;20256;-86
2021/01/08 04:10:15;;;;;;;17.50;12.23;;;3.40;99.90;;;;;;5012972;28;20182;-85
2021/01/08 04:12:41;;;;;;;18.43;12.87;;;3.40;99.90;;;;;;5014481;28;20170;-85
2021/01/08 04:15:07;;;;;;;17.07;12.27;;;3.50;99.90;;;;;;5014609;28;20174;-84
2021/01/08 04:17:33;;;;;;;20.00;12.40;;;3.50;99.90;;;;;;5013318;28;20178;-86
2021/01/08 04:19:58;;;;;;;20.77;13.57;;;3.50;99.90;;;;;;5013849;28;20578;-85
2021/01/08 04:22:24;;;;;;;16.63;12.50;;;3.40;99.90;;;;;;5012680;28;20213;-86
2021/01/08 04:24:49;;;;;;;20.13;12.90;;;3.40;99.90;;;;;;5012840;28;20217;-85
2021/01/08 04:27:15;;;;;;;21.40;13.03;;;3.30;99.90;;;;;;5012509;28;20268;-85
2021/01/08 04:29:41;;;;;;;19.53;13.00;;;3.30;99.90;;;;;;5012097;28;20182;-84
2021/01/08 04:32:07;;;;;;;16.43;13.33;;;3.30;99.90;;;;;;5012730;28;20537;-85
2021/01/08 04:34:32;;;;;;;21.33;13.07;;;3.30;99.90;;;;;;5012431;28;20174;-84
2021/01/08 04:36:58;;;;;;;18.40;13.47;;;3.30;99.90;;;;;;5012470;28;20165;-86
2021/01/08 04:39:23;;;;;;;19.47;14.07;;;3.30;99.90;;;;;;5012270;28;20210;-85
2021/01/08 04:41:49;;;;;;;20.00;13.43;;;3.50;99.90;;;;;;5012240;28;20209;-86
2021/01/08 04:44:15;;;;;;;19.37;14.13;;;3.50;99.90;;;;;;5012362;28;20739;-85
2021/01/08 04:46:43;;;;;;;20.57;14.10;;;3.50;99.90;;;;;;5012414;28;20177;-84
2021/01/08 04:49:08;;;;;;;21.73;14.00;;;3.50;99.90;;;;;;5012139;28;20201;-85
2021/01/08 04:51:37;;;;;;;16.53;12.40;;;3.70;99.90;;;;;;5012371;28;20171;-83
2021/01/08 04:54:04;;;;;;;21.67;14.00;;;3.50;99.90;;;;;;5012143;28;20174;-84
2021/01/08 04:56:43;;;;;;;18.03;13.33;;;3.40;99.90;;;;;;5012066;28;20178;-84
2021/01/08 04:59:09;;;;;;;21.40;13.90;;;3.50;99.90;;;;;;5012291;28;20665;-85
2021/01/08 05:01:36;;;;;;;22.03;14.27;;;3.40;99.90;;;;;;5012171;28;20186;-84
2021/01/08 05:04:02;;;;;;;21.50;14.77;;;3.30;99.90;;;;;;5012146;28;20220;-85
2021/01/08 05:06:28;;;;;;;20.67;13.50;;;3.30;99.90;;;;;;5012059;28;20182;-85
2021/01/08 05:08:54;;;;;;;21.00;14.30;;;3.30;99.90;;;;;;5011719;28;20186;-84
2021/01/08 05:11:23;;;;;;;19.00;13.67;;;3.30;99.90;;;;;;5011464;28;20179;-85
2021/01/08 05:14:03;;;;;;;19.87;14.23;;;3.30;99.90;;;;;;5012228;28;20225;-86
2021/01/08 05:16:30;;;;;;;18.13;13.93;;;3.30;99.90;;;;;;5012625;28;20217;-84
2021/01/08 05:18:58;;;;;;;19.60;14.83;;;3.30;99.90;;;;;;5012369;28;20180;-85
2021/01/08 05:21:25;;;;;;;18.30;13.63;;;3.30;99.90;;;;;;5011993;28;20193;-85
2021/01/08 05:23:55;;;;;;;19.57;13.50;;;3.40;99.90;;;;;;5012302;28;20268;-85
2021/01/08 05:26:22;;;;;;;21.07;15.17;;;3.30;99.90;;;;;;5011700;28;20178;-85
2021/01/08 05:28:48;;;;;;;23.50;14.90;;;3.30;99.90;;;;;;5012018;28;20187;-84
2021/01/08 05:31:15;;;;;;;19.33;13.13;;;3.30;99.90;;;;;;5011835;28;20225;-85
2021/01/08 05:33:42;;;;;;;21.17;14.37;;;3.30;99.90;;;;;;5012183;28;20181;-85
2021/01/08 05:36:13;;;;;;;20.97;14.53;;;3.30;99.90;;;;;;5012046;28;20182;-85
2021/01/08 05:38:47;;;;;;;19.97;14.33;;;3.30;99.90;;;;;;5012846;28;20170;-84
2021/01/08 05:41:12;;;;;;;20.13;12.93;;;3.40;99.90;;;;;;5011428;28;20541;-85
2021/01/08 05:43:43;;;;;;;21.73;14.67;;;3.40;99.90;;;;;;5015598;28;20214;-85
2021/01/08 05:46:19;;;;;;;19.57;14.17;;;3.40;99.90;;;;;;5015455;28;20174;-85
2021/01/08 05:48:50;;;;;;;19.33;13.03;;;3.40;99.90;;;;;;5015405;28;20226;-86
2021/01/08 05:51:17;;;;;;;19.77;13.10;;;3.30;99.90;;;;;;5015241;28;20276;-84
2021/01/08 05:53:46;;;;;;;18.33;13.53;;;3.40;99.90;;;;;;5015003;28;20192;-87
2021/01/08 05:56:17;;;;;;;20.63;13.80;;;3.40;99.90;;;;;;5015148;28;20175;-87
2021/01/08 05:58:46;;;;;;;18.20;13.47;;;3.50;99.90;;;;;;5015170;28;20186;-85
2021/01/08 06:01:13;;;;;;;21.17;14.00;;;3.50;99.90;;;;;;5015021;28;20181;-84
2021/01/08 06:03:40;;;;;;;23.43;14.57;;;3.50;99.90;;;;;;5014891;28;20245;-85
2021/01/08 06:06:07;;;;;;;18.43;13.70;;;3.40;99.90;;;;;;5015170;28;20631;-86
2021/01/08 06:08:32;;;;;;;19.40;13.57;;;3.40;99.90;;;;;;5015000;28;20170;-85
2021/01/08 06:10:59;;;;;;;22.30;14.90;;;3.20;99.90;;;;;;5014724;28;20507;-86
2021/01/08 06:13:29;;;;;;;21.23;13.87;;;3.30;99.90;;;;;;5014760;28;20609;-84
2021/01/08 06:15:56;;;;;;;22.97;14.07;;;3.30;99.90;;;;;;5014726;28;20249;-87
2021/01/08 06:18:23;;;;;;;21.30;14.80;;;3.30;99.90;;;;;;5014840;28;20265;-86
2021/01/08 06:20:54;;;;;;;22.13;15.13;;;3.30;99.90;;;;;;5014723;28;20265;-85
2021/01/08 06:23:40;;;;;;;24.47;14.20;;;3.30;99.90;;;;;;5014464;28;20198;-85
2021/01/08 06:26:08;;;;;;;20.60;14.47;;;3.30;99.90;;;;;;5014393;28;20261;-85
2021/01/08 06:28:49;;;;;;;23.00;14.37;;;3.30;99.90;;;;;;5014831;28;20170;-86
2021/01/08 06:31:21;;;;;;;22.27;15.17;;;3.40;99.90;;;;;;5014665;28;20205;-87
2021/01/08 06:34:05;;;;;;;23.10;14.80;;;3.40;99.90;;;;;;5015659;28;20167;-86
2021/01/08 06:36:32;;;;;;;23.40;15.57;;;3.40;99.90;;;;;;5013423;28;20178;-88
2021/01/08 06:39:00;;;;;;;21.90;15.13;;;3.40;99.90;;;;;;5014222;28;20376;-84
2021/01/08 06:41:26;;;;;;;26.57;16.33;;;3.30;99.90;;;;;;5012883;28;20198;-85
2021/01/08 06:44:00;;;;;;;20.87;15.20;;;3.40;99.90;;;;;;5014608;28;20283;-87
2021/01/08 06:46:30;;;;;;;21.40;15.37;;;3.30;99.90;;;;;;5014627;28;20257;-86
2021/01/08 06:49:02;;;;;;;23.50;15.60;;;3.30;99.90;;;;;;5029747;28;20185;-86
2021/01/08 06:51:32;;;;;;;20.77;14.57;;;3.40;99.90;;;;;;5037891;28;20185;-86
2021/01/08 06:54:04;;;;;;;21.73;15.27;;;3.20;99.90;;;;;;5020294;28;20206;-87
2021/01/08 06:56:43;;;;;;;25.17;15.83;;;3.30;99.90;;;;;;5015557;28;20197;-84
2021/01/08 06:59:12;;;;;;;23.43;16.00;;;3.50;99.90;;;;;;5013793;28;20174;-84
2021/01/08 07:01:57;;;;;;;23.10;15.63;;;3.40;99.90;;;;;;5013988;28;20653;-83
2021/01/08 07:04:27;;;;;;;22.93;16.73;;;3.40;99.90;;;;;;5013834;28;20217;-85
2021/01/08 07:06:54;;;;;;;24.40;16.10;;;3.30;99.90;;;;;;5005027;28;20175;-86
2021/01/08 07:09:20;;;;;;;22.87;16.67;;;3.30;99.90;;;;;;5009940;28;20186;-83
2021/01/08 07:11:54;;;;;;;26.53;17.93;;;3.30;99.90;;;;;;5013443;28;20253;-86
2021/01/08 07:14:22;;;;;;;23.77;16.07;;;3.40;99.90;;;;;;5013395;28;20177;-85
2021/01/08 07:16:53;;;;;;;24.00;16.77;;;3.30;99.90;;;;;;5013538;28;20241;-87
2021/01/08 07:19:21;;;;;;;26.53;17.23;;;3.30;99.90;;;;;;5008924;28;20198;-83
2021/01/08 07:21:55;;;;;;;25.27;17.10;;;3.30;99.90;;;;;;5009344;28;20194;-85
2021/01/08 07:24:32;;;;;;;24.43;16.83;;;3.30;99.90;;;;;;5012496;28;20217;-86
2021/01/08 07:27:19;;;;;;;25.00;17.00;;;3.20;99.90;;;;;;5012711;28;20220;-84
2021/01/08 07:29:57;;;;;;;24.30;17.23;;;3.20;99.90;;;;;;5013727;28;20170;-85
2021/01/08 07:32:45;;;;;;;24.43;16.37;;;3.30;99.90;;;;;;5012508;28;20174;-84
2021/01/08 07:35:26;;;;;;;24.33;17.50;;;3.20;99.90;;;;;;5012366;28;20170;-85
2021/01/08 07:37:59;;;;;;;24.17;16.73;;;3.30;99.90;;;;;;5012648;28;20649;-86
2021/01/08 07:40:26;;;;;;;26.07;16.43;;;3.30;99.90;;;;;;5012945;28;20233;-85
2021/01/08 07:43:00;;;;;;;22.03;17.30;;;3.30;99.90;;;;;;5012492;28;20325;-84
2021/01/08 07:45:52;;;;;;;25.57;16.93;;;3.30;99.90;;;;;;5012724;28;20690;-85
2021/01/08 07:48:27;;;;;;;23.77;16.23;;;3.30;99.90;;;;;;5011292;28;20210;-85
2021/01/08 07:51:01;;;;;;;26.13;16.63;;;3.30;99.90;;;;;;5004599;28;20189;-85
2021/01/08 07:53:42;;;;;;;27.37;16.43;;;3.30;99.90;;;;;;5014080;28;20177;-86
2021/01/08 07:56:15;;;;;;;25.70;17.57;;;3.30;99.90;;;;;;5012460;28;20166;-85
2021/01/08 07:58:42;;;;;;;26.10;16.03;;;3.40;99.90;;;;;;5012407;28;20171;-85
2021/01/08 08:01:12;;;;;;;24.23;17.47;;;3.30;99.90;;;;;;5012014;28;20178;-84
2021/01/08 08:03:40;;;;;;;25.27;17.50;;;3.30;99.90;;;;;;5012153;28;20213;-85
2021/01/08 08:06:06;;;;;;;25.40;16.93;;;3.30;99.90;;;;;;5013798;28;20162;-83
2021/01/08 08:08:32;;;;;;;23.87;17.27;;;3.20;99.90;;;;;;5010104;28;20189;-85
2021/01/08 08:11:12;;;;;;;31.93;17.80;;;3.20;99.90;;;;;;5011130;28;20178;-86
2021/01/08 08:13:38;;;;;;;25.77;17.30;;;3.20;99.90;;;;;;5006761;28;20174;-84
2021/01/08 08:16:04;;;;;;;23.77;16.43;;;3.30;99.90;;;;;;5011765;28;20581;-84
2021/01/08 08:18:30;;;;;;;25.20;17.13;;;3.20;99.90;;;;;;5012256;28;20173;-86
2021/01/08 08:21:11;;;;;;;29.87;17.00;;;3.10;99.90;;;;;;5011846;28;20175;-86
2021/01/08 08:23:37;;;;;;;22.80;16.30;;;3.10;99.90;;;;;;5011481;28;20289;-83
2021/01/08 08:26:04;;;;;;;28.67;18.40;;;3.10;99.90;;;;;;5013058;28;20162;-86
2021/01/08 08:28:30;;;;;;;25.80;16.97;;;3.40;99.90;;;;;;5014553;28;20162;-85
2021/01/08 08:30:56;;;;;;;25.77;16.73;;;3.20;99.90;;;;;;5012063;28;20166;-86
2021/01/08 08:33:23;;;;;;;23.80;17.50;;;3.40;99.90;;;;;;5012389;28;20178;-86
2021/01/08 08:35:50;;;;;;;23.97;17.20;;;3.30;99.90;;;;;;5014340;28;20202;-83
2021/01/08 08:38:16;;;;;;;26.10;18.03;;;3.30;99.90;;;;;;5014284;28;20675;-84
2021/01/08 08:40:42;;;;;;;24.43;16.93;;;3.40;99.90;;;;;;5011691;28;20234;-85
2021/01/08 08:43:08;;;;;;;25.80;16.80;;;3.40;99.90;;;;;;5013619;28;20622;-87
2021/01/08 08:45:35;;;;;;;24.80;17.80;;;3.40;99.90;;;;;;5012590;28;20224;-83
2021/01/08 08:48:05;;;;;;;26.60;17.87;;;3.40;99.90;;;;;;5013385;28;20174;-82
2021/01/08 08:50:42;;;;;;;24.33;17.50;;;3.40;99.90;;;;;;5011993;28;20229;-85
2021/01/08 08:53:13;;;;;;;24.33;16.80;;;3.40;99.90;;;;;;5012232;28;20178;-86
2021/01/08 08:55:39;;;;;;;22.00;16.50;;;3.30;99.90;;;;;;5014834;28;20645;-84
2021/01/08 08:58:07;;;;;;;26.47;17.77;;;3.50;99.90;;;;;;5012371;28;20265;-87
2021/01/08 09:00:34;;;;;;;23.50;17.37;;;3.40;99.90;;;;;;5016069;28;20178;-84
2021/01/08 09:03:18;;;;;;;23.37;16.07;;;3.40;99.90;;;;;;5010390;28;20343;-84
2021/01/08 09:05:45;;;;;;;25.03;16.30;;;3.50;99.90;;;;;;5011756;28;20197;-85
2021/01/08 09:08:10;;;;;;;25.70;17.13;;;3.60;99.90;;;;;;5012961;28;20196;-86
2021/01/08 09:10:41;;;;;;;24.70;16.57;;;3.50;99.90;;;;;;5010978;28;20217;-85
2021/01/08 09:13:23;;;;;;;23.63;16.60;;;3.50;99.90;;;;;;5013467;28;20190;-86
2021/01/08 09:16:07;;;;;;;25.90;16.63;;;3.30;99.90;;;;;;5015225;28;20170;-83
2021/01/08 09:18:47;;;;;;;25.30;17.53;;;3.50;99.90;;;;;;5015617;28;20174;-83
2021/01/08 09:21:48;;;;;;;23.73;16.47;;;3.60;99.90;;;;;;5017405;28;20170;-85
2021/01/08 09:24:20;;;;;;;23.27;16.43;;;3.60;99.90;;;;;;5009880;28;20310;-84
2021/01/08 09:26:47;;;;;;;25.67;16.30;;;3.60;99.90;;;;;;4995311;28;20632;-87
2021/01/08 09:29:32;;;;;;;23.53;15.07;;;3.60;99.90;;;;;;4995581;28;20598;-84
2021/01/08 09:31:58;;;;;;;22.33;15.90;;;3.60;99.90;;;;;;4994508;28;20177;-85
2021/01/08 09:34:25;;;;;;;25.03;17.13;;;3.70;99.90;;;;;;4997507;28;20175;-81
2021/01/08 09:36:53;;;;;;;23.03;16.53;;;3.80;99.90;;;;;;5007081;28;20567;-84
2021/01/08 09:39:20;;;;;;;27.90;17.17;;;3.70;99.90;;;;;;5015159;28;20198;-85
2021/01/08 09:41:55;;;;;;;23.77;16.50;;;3.60;99.90;;;;;;5016555;28;20198;-85
2021/01/08 09:44:32;;;;;;;24.90;17.30;;;3.70;99.90;;;;;;5020231;28;20747;-84
2021/01/08 09:47:04;;;;;;;23.07;16.33;;;3.80;99.90;;;;;;5018573;28;20622;-86
2021/01/08 09:49:39;;;;;;;21.63;15.63;;;3.80;99.90;;;;;;5017696;28;20195;-86
2021/01/08 09:52:05;;;;;;;24.23;16.33;;;3.90;99.90;;;;;;5017965;28;20545;-86
2021/01/08 09:54:41;;;;;;;25.00;16.83;;;4.00;99.90;;;;;;5017666;28;20698;-84
2021/01/08 09:57:06;;;;;;;27.70;16.80;;;4.00;99.90;;;;;;5014438;28;20184;-84
2021/01/08 09:59:32;;;;;;;25.90;16.47;;;4.00;99.90;;;;;;5015914;28;20174;-83
2021/01/08 10:02:01;;;;;;;23.43;14.83;;;4.00;99.90;;;;;;5015590;28;20241;-86
2021/01/08 10:04:31;;;;;;;24.50;16.07;;;4.10;99.90;;;;;;5014585;28;20232;-85
2021/01/08 10:07:01;;;;;;;22.03;15.50;;;4.10;99.90;;;;;;5014027;28;20167;-84
2021/01/08 10:09:43;;;;;;;22.03;14.83;;;4.20;99.90;;;;;;5014674;28;20182;-85
2021/01/08 10:12:10;;;;;;;24.20;16.27;;;4.30;99.90;;;;;;4995140;28;20286;-87
2021/01/08 10:14:35;;;;;;;25.70;15.63;;;4.30;99.90;;;;;;5017467;28;20151;-84
2021/01/08 10:17:27;;;;;;;20.33;14.40;;;4.40;99.90;;;;;;5013231;28;20186;-84
2021/01/08 10:19:55;;;;;;;20.10;13.77;;;4.40;99.90;;;;;;5001933;28;20197;-83
2021/01/08 10:22:22;;;;;;;19.37;13.80;;;4.20;99.90;;;;;;5013902;28;20178;-85
2021/01/08 10:25:25;;;;;;;24.03;14.73;;;4.10;99.90;;;;;;5014347;28;20227;-84
2021/01/08 10:27:51;;;;;;;21.83;14.83;;;4.10;99.90;;;;;;5012836;28;20813;-86
2021/01/08 10:30:17;;;;;;;27.90;14.73;;;4.20;99.90;;;;;;5013482;28;20334;-84
2021/01/08 10:32:47;;;;;;;22.10;13.90;;;4.20;99.90;;;;;;5013569;28;20170;-84
2021/01/08 10:35:14;;;;;;;20.80;13.30;;;4.40;99.90;;;;;;5013813;28;20174;-85
2021/01/08 10:37:41;;;;;;;21.80;14.67;;;4.50;99.90;;;;;;5013074;28;20245;-85
2021/01/08 10:40:07;;;;;;;21.63;14.00;;;4.40;99.90;;;;;;5013270;28;20225;-84
2021/01/08 10:42:33;;;;;;;18.73;14.27;;;4.40;99.90;;;;;;5012739;28;20221;-85
2021/01/08 10:45:00;;;;;;;20.57;14.33;;;4.50;99.90;;;;;;5012954;28;20178;-84
2021/01/08 10:47:25;;;;;;;23.13;14.90;;;4.60;99.90;;;;;;5011823;28;20170;-83
2021/01/08 10:49:51;;;;;;;21.23;14.20;;;4.70;99.90;;;;;;5012539;28;20194;-86
2021/01/08 10:52:17;;;;;;;20.90;15.10;;;4.90;99.90;;;;;;5013160;28;20623;-85
2021/01/08 10:54:43;;;;;;;17.90;13.23;;;4.70;99.90;;;;;;5013161;28;20232;-84
2021/01/08 10:57:08;;;;;;;21.33;14.20;;;4.80;99.90;;;;;;5013238;28;20225;-83
2021/01/08 10:59:34;;;;;;;21.17;13.60;;;4.80;99.90;;;;;;5014251;28;20185;-85
2021/01/08 11:02:00;;;;;;;17.60;13.50;;;4.70;99.90;;;;;;5012998;28;20209;-84
2021/01/08 11:04:25;;;;;;;21.70;14.50;;;4.70;99.90;;;;;;5014351;28;20214;-83
2021/01/08 11:06:57;;;;;;;21.00;13.83;;;4.70;99.90;;;;;;5012542;28;20228;-86
2021/01/08 11:09:23;;;;;;;23.37;14.70;;;4.70;99.90;;;;;;5013083;28;20285;-85
2021/01/08 11:11:49;;;;;;;18.47;13.60;;;4.80;99.90;;;;;;5014151;28;20272;-85
2021/01/08 11:14:14;;;;;;;20.20;13.67;;;4.70;99.90;;;;;;5012542;28;20182;-86
2021/01/08 11:16:40;;;;;;;20.60;13.83;;;4.90;99.90;;;;;;5013039;28;20262;-84
2021/01/08 11:19:06;;;;;;;19.23;13.90;;;4.90;99.90;;;;;;5012479;28;20175;-85
2021/01/08 11:21:32;;;;;;;19.70;13.70;;;4.80;99.90;;;;;;5012760;28;20225;-84
2021/01/08 11:23:58;;;;;;;20.27;12.97;;;4.70;99.90;;;;;;5013970;28;20214;-86
2021/01/08 11:26:27;;;;;;;19.93;13.70;;;4.80;99.90;;;;;;5012808;28;20170;-86
2021/01/08 11:28:56;;;;;;;16.77;12.33;;;4.80;99.90;;;;;;5012470;28;20209;-85
2021/01/08 11:31:30;;;;;;;19.00;12.47;;;4.70;99.90;;;;;;5012764;28;20577;-85
2021/01/08 11:33:55;;;;;;;21.40;13.60;;;4.80;99.90;;;;;;5013808;28;20228;-86
2021/01/08 11:36:21;;;;;;;18.10;13.47;;;4.80;99.90;;;;;;5012651;28;20190;-85
2021/01/08 11:38:46;;;;;;;18.03;12.67;;;4.90;99.90;;;;;;5013162;28;20265;-86
2021/01/08 11:41:12;;;;;;;18.03;13.67;;;4.90;99.90;;;;;;5012952;28;20194;-86
2021/01/08 11:43:38;;;;;;;21.00;14.30;;;4.90;99.90;;;;;;5012577;28;20214;-86
2021/01/08 11:46:04;;;;;;;19.03;13.30;;;5.00;99.90;;;;;;5012498;28;20170;-86
2021/01/08 11:48:30;;;;;;;19.47;14.17;;;5.20;99.90;;;;;;5013641;28;20174;-85
2021/01/08 11:50:55;;;;;;;18.83;13.23;;;4.90;99.90;;;;;;5017331;28;20182;-86
2021/01/08 11:53:21;;;;;;;20.37;13.47;;;4.90;99.90;;;;;;5012667;28;20233;-87
2021/01/08 11:55:46;;;;;;;17.70;13.00;;;4.90;99.90;;;;;;5013147;28;20329;-89
2021/01/08 11:58:12;;;;;;;19.90;13.73;;;5.00;99.90;;;;;;5012891;28;20179;-88
2021/01/08 12:00:38;;;;;;;18.57;13.33;;;5.00;99.90;;;;;;5013881;28;20205;-89
2021/01/08 12:03:04;;;;;;;19.30;13.97;;;5.00;99.90;;;;;;5014718;28;20198;-88
2021/01/08 12:05:30;;;;;;;23.43;15.33;;;5.20;99.90;;;;;;5021468;28;20197;-89
2021/01/08 12:07:55;;;;;;;19.70;14.33;;;5.10;99.90;;;;;;5012951;28;20194;-88
2021/01/08 12:10:21;;;;;;;19.43;13.67;;;5.20;99.90;;;;;;5011595;28;20204;-88
2021/01/08 12:12:49;;;;;;;23.30;15.40;;;5.10;99.90;;;;;;5016371;28;20186;-90
2021/01/08 12:15:15;;;;;;;18.43;13.70;;;5.30;99.90;;;;;;5018622;28;20163;-90
2021/01/08 12:17:41;;;;;;;18.07;13.10;;;5.40;99.90;;;;;;5019231;28;20692;-88
2021/01/08 12:20:09;;;;;;;23.17;13.63;;;5.40;99.90;;;;;;5012706;28;20705;-89
2021/01/08 12:22:35;;;;;;;16.83;12.90;;;5.60;99.90;;;;;;5014311;28;20174;-87
2021/01/08 12:25:01;;;;;;;20.10;14.30;;;5.60;99.90;;;;;;5013497;28;20260;-90
2021/01/08 12:27:26;;;;;;;17.97;13.47;;;5.60;99.90;;;;;;5012289;28;20581;-87
2021/01/08 12:29:52;;;;;;;17.57;11.90;;;5.60;99.90;;;;;;5014333;28;20193;-85
2021/01/08 12:32:19;;;;;;;16.90;12.23;;;5.60;99.90;;;;;;5012430;28;20204;-86
2021/01/08 12:34:44;;;;;;;18.13;13.67;;;5.50;99.90;;;;;;5012269;28;20178;-87
2021/01/08 12:37:10;;;;;;;19.37;13.53;;;5.50;99.90;;;;;;5012624;28;20702;-87
2021/01/08 12:39:36;;;;;;;19.80;13.80;;;5.40;99.90;;;;;;5013812;28;20213;-85
2021/01/08 12:42:02;;;;;;;20.73;12.93;;;5.50;99.90;;;;;;5012780;28;20181;-84
2021/01/08 12:44:28;;;;;;;21.33;13.27;;;5.50;99.90;;;;;;5012670;28;20206;-84
2021/01/08 12:47:02;;;;;;;16.43;12.07;;;5.50;99.90;;;;;;5011742;28;20267;-87
2021/01/08 12:49:27;;;;;;;17.60;12.60;;;5.40;99.90;;;;;;5009424;28;20282;-87